WetterOnline ( https://www.wetteronline.ch )

Wetter aktuell Zingst

Aktuelles Wetter: Barth (7m)

6-stündlich | Neueste Meldungen
Ortszeit Temperatur Wetter
Sa, 24.02. 13:00 9.8° C wolkig
Sa, 24.02. 7:00 0.2° C wolkenlos
Sa, 24.02. 1:00 2.6° C wolkenlos
Fr, 23.02. 19:00 6.8° C wolkig
Fr, 23.02. 13:00 8.9° C leicht bewölkt
Fr, 23.02. 7:00 6.1° C leicht bewölkt
Fr, 23.02. 1:00 10.4° C Regen
Do, 22.02. 19:00 8.9° C bedeckt
Ortszeit Temperatur Wetter
Sa, 24.02. 16:00 8.9° C bewölkt
Sa, 24.02. 15:40 9.2° C bedeckt
Sa, 24.02. 15:30 9.1° C wolkig
Sa, 24.02. 15:20 9.1° C wolkig
Sa, 24.02. 15:10 9.3° C bedeckt
Sa, 24.02. 15:00 9.8° C bedeckt
Sa, 24.02. 14:50 9.8° C bedeckt
Sa, 24.02. 14:30 10.0° C bewölkt
Sa, 24.02. 14:00 9.9° C leicht bewölkt
Sa, 24.02. 13:30 10.1° C leicht bewölkt
Sa, 24.02. 13:00 9.8° C wolkig
Ortszeit Relative Feuchte Sichtweite
Sa, 24.02. 13:00 59% 60 km
Sa, 24.02. 7:00 92% 45 km
Sa, 24.02. 1:00 83% 55 km
Fr, 23.02. 19:00 67% >70 km
Fr, 23.02. 13:00 54% >70 km
Fr, 23.02. 7:00 75% >70 km
Fr, 23.02. 1:00 91% >70 km
Do, 22.02. 19:00 97% 18 km
Ortszeit Relative Feuchte Sichtweite
Sa, 24.02. 16:00 65% 65 km
Sa, 24.02. 15:40 64% -
Sa, 24.02. 15:30 65% 60 km
Sa, 24.02. 15:20 65% -
Sa, 24.02. 15:10 65% -
Sa, 24.02. 15:00 60% 45 km
Sa, 24.02. 14:50 60% -
Sa, 24.02. 14:30 60% 35 km
Sa, 24.02. 14:00 60% 50 km
Sa, 24.02. 13:30 59% 45 km
Sa, 24.02. 13:00 59% 60 km
Ortszeit Niederschlagsmenge Niederschlagsart
Sa, 24.02. 13:00 0.0 l/m2 in 6 Std. -
Sa, 24.02. 7:00 0.0 l/m2 in 12 Std. -
Sa, 24.02. 1:00 0.0 l/m2 in 6 Std. -
Fr, 23.02. 19:00 0.0 l/m2 in 12 Std. -
Fr, 23.02. 13:00 0.0 l/m2 in 6 Std. -
Fr, 23.02. 7:00 1 l/m2 in 12 Std. Regen
Fr, 23.02. 1:00 1 l/m2 in 6 Std. Regen
Do, 22.02. 19:00 0.3 l/m2 in 12 Std. Regen
Ortszeit Niederschlagsmenge Niederschlagsart
Sa, 24.02. 16:00 0.0 l/m2 in 1 Std. -
Sa, 24.02. 15:40 keine Meldung -
Sa, 24.02. 15:30 0.0 l/m2 in 30 Min -
Sa, 24.02. 15:20 keine Meldung -
Sa, 24.02. 15:10 keine Meldung -
Sa, 24.02. 15:00 0.0 l/m2 in 1 Std. -
Sa, 24.02. 14:50 keine Meldung -
Sa, 24.02. 14:30 0.0 l/m2 in 30 Min -
Sa, 24.02. 14:00 0.0 l/m2 in 1 Std. -
Sa, 24.02. 13:30 0.0 l/m2 in 30 Min -
Sa, 24.02. 13:00 0.0 l/m2 in 1 Std. -
Ortszeit Stärke Spitze Richtung
km/h Bft. km/h Grad Sektor
Sa, 24.02. 13:00 17 3 26 190° S
Sa, 24.02. 7:00 7 2 18 160° S
Sa, 24.02. 1:00 9 2 28 130° SO
Fr, 23.02. 19:00 20 4 54 160° S
Fr, 23.02. 13:00 32 5 58 220° SW
Fr, 23.02. 7:00 25 4 76 230° SW
Fr, 23.02. 1:00 30 5 50 180° S
Do, 22.02. 19:00 17 3 24 150° SO
Ortszeit Stärke Spitze Richtung
km/h Bft. km/h Grad Sektor
Sa, 24.02. 16:00 18 3 29 190° S
Sa, 24.02. 15:40 17 3 - 180° S
Sa, 24.02. 15:30 15 3 26 190° S
Sa, 24.02. 15:20 15 3 - 190° S
Sa, 24.02. 15:10 18 3 - 190° S
Sa, 24.02. 15:00 18 3 29 190° S
Sa, 24.02. 14:50 18 3 - 190° S
Sa, 24.02. 14:30 17 3 24 190° S
Sa, 24.02. 14:00 18 3 29 200° S
Sa, 24.02. 13:30 19 3 28 200° S
Sa, 24.02. 13:00 17 3 26 190° S
Ortszeit Untergrenze Bedeckung Gattung
total tief tief mittel hoch
Sa, 24.02. 13:00 7200 m 7/8 0/8 - - -
Sa, 24.02. 7:00 - 0/8 0/8 - - -
Sa, 24.02. 1:00 - 0/8 0/8 - - -
Fr, 23.02. 19:00 1800 m 5/8 5/8 - - -
Fr, 23.02. 13:00 1260 m 2/8 2/8 - - -
Fr, 23.02. 7:00 870 m 5/8 2/8 - - -
Fr, 23.02. 1:00 330 m 7/8 7/8 - - -
Do, 22.02. 19:00 180 m 8/8 8/8 - - -
Ortszeit Bedeckungsgrad in Achtel und Wolkenuntergrenze
Sa, 24.02. 16:00 4(1320m) 8(6600m) 8(7500m)
Sa, 24.02. 15:40 8
Sa, 24.02. 15:30 1(1260m) 5(4200m) 8(7200m)
Sa, 24.02. 15:20 1(1260m) 5(4200m) 8(7200m)
Sa, 24.02. 15:10 8
Sa, 24.02. 15:00 2(3600m) 8(6900m)
Sa, 24.02. 14:50 2(3600m) 8(6900m)
Sa, 24.02. 14:30 6(3300m) 6(4800m) 7(7500m)
Sa, 24.02. 14:00 3(3900m) 3(7200m)
Sa, 24.02. 13:30 1(1050m) 3(6900m)
Sa, 24.02. 13:00 3(7200m) 7(7800m)
Ortszeit Luftdruck NN (hPa) Tendenz (hPa in 3 Std.)
Sa, 24.02. 13:00 1000 + 0,4
Sa, 24.02. 7:00 999 + 0,5
Sa, 24.02. 1:00 999 + 1,1
Fr, 23.02. 19:00 997 + 1,7
Fr, 23.02. 13:00 994 + 2,6
Fr, 23.02. 7:00 987 + 4,9
Fr, 23.02. 1:00 979 - 2,8
Do, 22.02. 19:00 986 - 2,8
Ortszeit Luftdruck NN (hPa) Tendenz (hPa in 3 Std.)
Sa, 24.02. 16:00 1001 + 0,8
Sa, 24.02. 15:40 1001 keine Meldung
Sa, 24.02. 15:30 1001 + 0,8
Sa, 24.02. 15:20 1001 keine Meldung
Sa, 24.02. 15:10 1001 keine Meldung
Sa, 24.02. 15:00 1001 + 0,6
Sa, 24.02. 14:50 1001 keine Meldung
Sa, 24.02. 14:30 1001 + 0,4
Sa, 24.02. 14:00 1001 + 0,1
Sa, 24.02. 13:30 1001 + 0,3
Sa, 24.02. 13:00 1000 + 0,4
Ortszeit Schneehöhe (cm)
Sa, 24.02. 13:00 0
Sa, 24.02. 7:00 0
Sa, 24.02. 1:00 0
Fr, 23.02. 19:00 0
Fr, 23.02. 13:00 0
Fr, 23.02. 7:00 0
Fr, 23.02. 1:00 0
Do, 22.02. 19:00 0
Ortszeit Schneehöhe (cm)
Sa, 24.02. 16:00 0
Sa, 24.02. 15:40 -
Sa, 24.02. 15:30 0
Sa, 24.02. 15:20 0
Sa, 24.02. 15:10 -
Sa, 24.02. 15:00 0
Sa, 24.02. 14:50 0
Sa, 24.02. 14:30 0
Sa, 24.02. 14:00 0
Sa, 24.02. 13:30 0
Sa, 24.02. 13:00 0
Link zu dieser Seite / Seite empfehlen

Das Wetter in ...